Terminal Aerodrome Forecast
Issued by NWS Springfield, MO

Home | Current Version | Previous Version | Text Only | Print | Product List | Glossary On
Versions: 1 2 3 4 5 6 7 8 9 10 11 12 13 14 15 16 17 18 19 20 21 22 23 24 25 26 27 28 29 30
000
FTUS43 KSGF 231700
TAFSGF
TAF
KSGF 231726Z 2318/2418 14013KT P6SM VCSH BKN040
     FM240200 14016KT P6SM -SHRA VCTS SCT040CB OVC100
     FM240900 15014KT 4SM -RA BR VCTS OVC025CB
     FM241400 16014G22KT 5SM -RA BR OVC025=

USA.gov is the U.S. government's official web portal to all federal, state and local government web resources and services.